createdAt,value
2018-01-18T00:00:46.654Z,812.00
2018-01-18T00:01:46.651Z,812.02
2018-01-18T00:02:46.652Z,812.00
2018-01-18T00:03:46.653Z,812.04
2018-01-18T00:04:46.650Z,812.07
2018-01-18T00:05:46.651Z,812.18
2018-01-18T00:06:46.650Z,812.14
2018-01-18T00:07:46.650Z,812.10
2018-01-18T00:08:46.649Z,812.04
2018-01-18T00:09:46.649Z,811.89
2018-01-18T00:10:46.649Z,812.05
2018-01-18T00:11:46.648Z,812.05
2018-01-18T00:12:46.647Z,812.14
2018-01-18T00:13:46.646Z,812.25
2018-01-18T00:14:46.647Z,812.10
2018-01-18T00:15:46.647Z,812.09
2018-01-18T00:16:46.646Z,812.09
2018-01-18T00:17:46.647Z,812.18
2018-01-18T00:18:46.647Z,811.88
2018-01-18T00:19:46.647Z,811.87
2018-01-18T00:20:46.644Z,811.85
2018-01-18T00:21:46.646Z,811.96
2018-01-18T00:22:46.646Z,812.06
2018-01-18T00:23:46.647Z,811.80
2018-01-18T00:24:46.643Z,811.71
2018-01-18T00:25:46.649Z,811.82
2018-01-18T00:26:46.645Z,811.85
2018-01-18T00:27:46.645Z,811.90
2018-01-18T00:28:46.643Z,812.04
2018-01-18T00:29:46.643Z,811.99
2018-01-18T00:30:46.642Z,811.97
2018-01-18T00:31:46.643Z,811.92
2018-01-18T00:32:46.642Z,811.75
2018-01-18T00:33:46.643Z,811.87
2018-01-18T00:34:46.641Z,811.84
2018-01-18T00:35:46.641Z,811.80
2018-01-18T00:36:46.639Z,811.86
2018-01-18T00:37:46.642Z,811.91
2018-01-18T00:38:46.641Z,811.86
2018-01-18T00:39:46.640Z,811.88
2018-01-18T00:40:46.639Z,811.96
2018-01-18T00:41:46.642Z,812.03
2018-01-18T00:42:46.638Z,812.13
2018-01-18T00:43:46.639Z,812.01
2018-01-18T00:44:46.637Z,812.20
2018-01-18T00:45:46.638Z,812.17
2018-01-18T00:46:46.640Z,812.21
2018-01-18T00:47:46.639Z,812.27
2018-01-18T00:48:46.637Z,812.28
2018-01-18T00:49:46.637Z,812.25
2018-01-18T00:50:46.638Z,812.44
2018-01-18T00:51:46.641Z,812.16
2018-01-18T00:52:46.638Z,812.17
2018-01-18T00:53:46.638Z,812.09
2018-01-18T00:54:46.638Z,812.07
2018-01-18T00:55:46.637Z,812.04
2018-01-18T00:56:46.637Z,812.10
2018-01-18T00:57:46.637Z,811.90
2018-01-18T00:58:46.638Z,811.89
2018-01-18T00:59:46.639Z,812.08
2018-01-18T01:00:46.637Z,812.02
2018-01-18T01:01:46.640Z,812.21
2018-01-18T01:02:46.636Z,812.10
2018-01-18T01:03:46.638Z,812.05
2018-01-18T01:04:46.636Z,811.82
2018-01-18T01:05:46.637Z,811.70
2018-01-18T01:06:46.638Z,811.79
2018-01-18T01:07:46.636Z,811.88
2018-01-18T01:08:46.636Z,812.05
2018-01-18T01:09:46.636Z,811.94
2018-01-18T01:10:46.635Z,811.89
2018-01-18T01:11:46.636Z,812.04
2018-01-18T01:12:46.636Z,812.06
2018-01-18T01:13:46.635Z,812.04
2018-01-18T01:14:46.636Z,811.99
2018-01-18T01:15:46.636Z,811.94
2018-01-18T01:16:46.636Z,811.91
2018-01-18T01:17:46.635Z,811.87
2018-01-18T01:18:46.635Z,812.16
2018-01-18T01:19:46.635Z,812.19
2018-01-18T01:20:46.634Z,812.13
2018-01-18T01:21:46.634Z,812.06
2018-01-18T01:22:46.636Z,812.00
2018-01-18T01:23:46.636Z,811.92
2018-01-18T01:24:46.635Z,811.93
2018-01-18T01:25:46.639Z,811.82
2018-01-18T01:26:46.635Z,811.80
2018-01-18T01:27:46.637Z,811.85
2018-01-18T01:28:46.636Z,811.89
2018-01-18T01:29:46.637Z,811.91
2018-01-18T01:30:46.637Z,811.87
2018-01-18T01:31:46.637Z,811.82
2018-01-18T01:32:46.640Z,811.80
2018-01-18T01:33:46.637Z,811.83
2018-01-18T01:34:46.637Z,811.83
2018-01-18T01:35:46.640Z,811.84
2018-01-18T01:36:46.638Z,811.79
2018-01-18T01:37:46.638Z,811.81
2018-01-18T01:38:46.639Z,811.73
2018-01-18T01:39:46.639Z,811.73
2018-01-18T01:40:46.637Z,811.71
2018-01-18T01:41:46.639Z,811.78
2018-01-18T01:42:46.640Z,811.79
2018-01-18T01:43:46.640Z,811.72
2018-01-18T01:44:46.645Z,811.79
2018-01-18T01:45:46.639Z,811.80
2018-01-18T01:46:46.641Z,811.83
2018-01-18T01:47:46.641Z,811.81
2018-01-18T01:48:46.644Z,811.80
2018-01-18T01:49:46.642Z,811.77
2018-01-18T01:50:46.643Z,811.78
2018-01-18T01:51:46.642Z,811.83
2018-01-18T01:52:46.642Z,811.78
2018-01-18T01:53:46.643Z,811.78
2018-01-18T01:54:46.644Z,811.74
2018-01-18T01:55:46.645Z,811.74
2018-01-18T01:56:46.644Z,811.67
2018-01-18T01:57:46.646Z,811.61
2018-01-18T01:58:46.646Z,811.60
2018-01-18T01:59:46.646Z,811.59
2018-01-18T02:00:46.648Z,811.61
2018-01-18T02:01:46.651Z,811.63
2018-01-18T02:02:46.649Z,811.72
2018-01-18T02:03:46.650Z,811.81
2018-01-18T02:04:46.650Z,811.91
2018-01-18T02:05:46.655Z,811.94
2018-01-18T02:06:46.653Z,811.95
2018-01-18T02:07:46.654Z,811.96
2018-01-18T02:08:46.657Z,811.93
2018-01-18T02:09:46.653Z,811.87
2018-01-18T02:10:46.653Z,811.91
2018-01-18T02:11:46.654Z,811.98
2018-01-18T02:12:46.658Z,811.98
2018-01-18T02:13:46.657Z,811.98
2018-01-18T02:14:46.659Z,812.00
2018-01-18T02:15:46.659Z,812.07
2018-01-18T02:16:46.660Z,812.13
2018-01-18T02:17:46.662Z,812.07
2018-01-18T02:18:46.661Z,812.01
2018-01-18T02:19:46.663Z,811.86
2018-01-18T02:20:46.662Z,811.82
2018-01-18T02:21:46.665Z,811.74
2018-01-18T02:22:46.668Z,811.73
2018-01-18T02:23:46.665Z,811.73
2018-01-18T02:24:46.668Z,811.74
2018-01-18T02:25:46.668Z,811.70
2018-01-18T02:26:46.671Z,811.70
2018-01-18T02:27:46.671Z,811.70
2018-01-18T02:28:46.671Z,811.62
2018-01-18T02:29:46.673Z,811.64
2018-01-18T02:30:46.673Z,811.65
2018-01-18T02:31:46.675Z,811.68
2018-01-18T02:32:46.680Z,811.73
2018-01-18T02:33:46.678Z,811.68
2018-01-18T02:34:46.679Z,811.64
2018-01-18T02:35:46.678Z,811.67
2018-01-18T02:36:46.679Z,811.68
2018-01-18T02:37:46.683Z,811.67
2018-01-18T02:38:46.683Z,811.71
2018-01-18T02:39:46.684Z,811.72
2018-01-18T02:40:46.683Z,811.70
2018-01-18T02:41:46.686Z,811.58
2018-01-18T02:42:46.686Z,811.50
2018-01-18T02:43:46.689Z,811.54
2018-01-18T02:44:46.688Z,811.56
2018-01-18T02:45:46.691Z,811.53
2018-01-18T02:46:46.692Z,811.51
2018-01-18T02:47:46.692Z,811.52
2018-01-18T02:48:46.693Z,811.51
2018-01-18T02:49:46.693Z,811.58
2018-01-18T02:50:46.700Z,811.56
2018-01-18T02:51:46.696Z,811.55
2018-01-18T02:52:46.698Z,811.49
2018-01-18T02:53:46.698Z,811.48
2018-01-18T02:54:46.700Z,811.43
2018-01-18T02:55:46.702Z,811.45
2018-01-18T02:56:46.703Z,811.41
2018-01-18T02:57:46.703Z,811.41
2018-01-18T02:58:46.710Z,811.38
2018-01-18T02:59:46.705Z,811.36
2018-01-18T03:00:46.706Z,811.36
2018-01-18T03:01:46.708Z,811.32
2018-01-18T03:02:46.710Z,811.24
2018-01-18T03:03:46.711Z,811.18
2018-01-18T03:04:46.719Z,811.23
2018-01-18T03:05:46.714Z,811.16
2018-01-18T03:06:46.715Z,811.17
2018-01-18T03:07:46.718Z,810.99
2018-01-18T03:08:46.718Z,810.95
2018-01-18T03:09:46.720Z,810.89
2018-01-18T03:10:46.722Z,810.69
2018-01-18T03:11:46.722Z,810.61
2018-01-18T03:12:46.723Z,810.67
2018-01-18T03:13:46.728Z,810.67
2018-01-18T03:14:46.734Z,810.71
2018-01-18T03:15:46.730Z,810.62
2018-01-18T03:16:46.729Z,810.68
2018-01-18T03:17:46.730Z,810.63
2018-01-18T03:18:46.732Z,810.62
2018-01-18T03:19:46.735Z,810.69
2018-01-18T03:20:46.739Z,810.77
2018-01-18T03:21:46.736Z,810.81
2018-01-18T03:22:46.738Z,810.82
2018-01-18T03:23:46.740Z,810.86
2018-01-18T03:24:46.740Z,810.93
2018-01-18T03:25:46.740Z,810.91
2018-01-18T03:26:46.743Z,810.89
2018-01-18T03:27:46.744Z,810.89
2018-01-18T03:28:46.744Z,810.85
2018-01-18T03:29:46.746Z,810.80
2018-01-18T03:30:46.748Z,810.77
2018-01-18T03:31:46.752Z,810.81
2018-01-18T03:32:46.750Z,810.94
2018-01-18T03:33:46.750Z,810.91
2018-01-18T03:34:46.753Z,810.93
2018-01-18T03:35:46.755Z,811.00
2018-01-18T03:36:46.755Z,811.03
2018-01-18T03:37:46.756Z,811.01
2018-01-18T03:38:46.757Z,811.00
2018-01-18T03:39:46.760Z,810.91
2018-01-18T03:40:46.761Z,810.88
2018-01-18T03:41:46.761Z,810.85
2018-01-18T03:42:46.762Z,810.88
2018-01-18T03:43:46.765Z,810.85
2018-01-18T03:44:46.764Z,810.79
2018-01-18T03:45:46.766Z,810.81
2018-01-18T03:46:46.768Z,810.80
2018-01-18T03:47:46.769Z,810.71
2018-01-18T03:48:46.775Z,810.69
2018-01-18T03:49:46.771Z,810.76
2018-01-18T03:50:46.773Z,810.69
2018-01-18T03:51:46.775Z,810.72
2018-01-18T03:52:46.777Z,810.69
2018-01-18T03:53:46.777Z,810.64
2018-01-18T03:54:46.785Z,810.73
2018-01-18T03:55:46.782Z,810.81
2018-01-18T03:56:46.781Z,810.79
2018-01-18T03:57:46.783Z,810.71
2018-01-18T03:58:46.785Z,810.75
2018-01-18T03:59:46.787Z,810.77
2018-01-18T04:00:46.789Z,810.73
2018-01-18T04:01:46.789Z,810.72
2018-01-18T04:02:46.792Z,810.71
2018-01-18T04:03:46.795Z,810.68
2018-01-18T04:04:46.793Z,810.67
2018-01-18T04:05:46.797Z,810.66
2018-01-18T04:06:46.799Z,810.69
2018-01-18T04:07:46.800Z,810.66
2018-01-18T04:08:46.801Z,810.61
2018-01-18T04:09:46.804Z,810.48
2018-01-18T04:10:46.805Z,810.46
2018-01-18T04:11:46.806Z,810.46
2018-01-18T04:12:46.807Z,810.41
2018-01-18T04:13:46.811Z,810.38
2018-01-18T04:14:46.810Z,810.35
2018-01-18T04:15:46.815Z,810.36
2018-01-18T04:16:46.815Z,810.32
2018-01-18T04:17:46.816Z,810.39
2018-01-18T04:18:46.820Z,810.45
2018-01-18T04:19:46.827Z,810.38
2018-01-18T04:20:46.832Z,810.36
2018-01-18T04:21:46.830Z,810.36
2018-01-18T04:22:46.825Z,810.42
2018-01-18T04:23:46.826Z,810.36
2018-01-18T04:24:46.828Z,810.41
2018-01-18T04:25:46.831Z,810.39
2018-01-18T04:26:46.832Z,810.43
2018-01-18T04:27:46.835Z,810.47
2018-01-18T04:28:46.834Z,810.37
2018-01-18T04:29:46.836Z,810.29
2018-01-18T04:30:46.838Z,810.27
2018-01-18T04:31:46.839Z,810.27
2018-01-18T04:32:46.841Z,810.33
2018-01-18T04:33:46.842Z,810.34
2018-01-18T04:34:46.844Z,810.43
2018-01-18T04:35:46.846Z,810.48
2018-01-18T04:36:46.848Z,810.49
2018-01-18T04:37:46.851Z,810.51
2018-01-18T04:38:46.852Z,810.55
2018-01-18T04:39:46.852Z,810.51
2018-01-18T04:40:46.852Z,810.53
2018-01-18T04:41:46.858Z,810.55
2018-01-18T04:42:46.857Z,810.59
2018-01-18T04:43:46.861Z,810.62
2018-01-18T04:44:46.863Z,810.61
2018-01-18T04:45:46.871Z,810.56
2018-01-18T04:46:46.868Z,810.55
2018-01-18T04:47:46.871Z,810.46
2018-01-18T04:48:46.867Z,810.43
2018-01-18T04:49:46.872Z,810.44
2018-01-18T04:50:46.872Z,810.40
2018-01-18T04:51:46.878Z,810.36
2018-01-18T04:52:46.875Z,810.33
2018-01-18T04:53:46.881Z,810.38
2018-01-18T04:54:46.880Z,810.45
2018-01-18T04:55:46.882Z,810.50
2018-01-18T04:56:46.883Z,810.49
2018-01-18T04:57:46.885Z,810.53
2018-01-18T04:58:46.888Z,810.50
2018-01-18T04:59:46.891Z,810.45
2018-01-18T05:00:46.891Z,810.45
2018-01-18T05:01:46.893Z,810.49
2018-01-18T05:02:46.895Z,810.51
2018-01-18T05:03:46.896Z,810.54
2018-01-18T05:04:46.898Z,810.49
2018-01-18T05:05:46.899Z,810.53
2018-01-18T05:06:46.901Z,810.50
2018-01-18T05:07:46.903Z,810.52
2018-01-18T05:08:46.906Z,810.57
2018-01-18T05:09:46.908Z,810.58
2018-01-18T05:10:46.909Z,810.57
2018-01-18T05:11:46.912Z,810.56
2018-01-18T05:12:46.914Z,810.54
2018-01-18T05:13:46.916Z,810.58
2018-01-18T05:14:46.917Z,810.58
2018-01-18T05:15:46.921Z,810.57
2018-01-18T05:16:46.921Z,810.63
2018-01-18T05:17:46.922Z,810.60
2018-01-18T05:18:46.927Z,810.59
2018-01-18T05:19:46.928Z,810.51
2018-01-18T05:20:46.930Z,810.47
2018-01-18T05:21:46.932Z,810.45
2018-01-18T05:22:46.935Z,810.50
2018-01-18T05:23:46.938Z,810.52
2018-01-18T05:24:46.936Z,810.62
2018-01-18T05:25:46.939Z,810.63
2018-01-18T05:26:46.941Z,810.63
2018-01-18T05:27:46.943Z,810.64
2018-01-18T05:28:46.945Z,810.68
2018-01-18T05:29:46.947Z,810.66
2018-01-18T05:30:46.949Z,810.69
2018-01-18T05:31:46.951Z,810.72
2018-01-18T05:32:46.952Z,810.60
2018-01-18T05:33:46.955Z,810.62
2018-01-18T05:34:46.955Z,810.68
2018-01-18T05:35:46.958Z,810.60
2018-01-18T05:36:46.959Z,810.66
2018-01-18T05:37:46.961Z,810.71
2018-01-18T05:38:46.968Z,810.77
2018-01-18T05:39:46.965Z,810.71
2018-01-18T05:40:46.966Z,810.67
2018-01-18T05:41:46.970Z,810.64
2018-01-18T05:42:46.970Z,810.76
2018-01-18T05:43:46.975Z,810.86
2018-01-18T05:44:46.974Z,810.68
2018-01-18T05:45:46.975Z,810.66
2018-01-18T05:46:46.979Z,810.76
2018-01-18T05:47:46.982Z,810.70
2018-01-18T05:48:46.984Z,810.54
2018-01-18T05:49:46.983Z,810.70
2018-01-18T05:50:46.984Z,810.90
2018-01-18T05:51:46.989Z,810.90
2018-01-18T05:52:46.987Z,811.10
2018-01-18T05:53:46.990Z,810.75
2018-01-18T05:54:46.992Z,810.67
2018-01-18T05:55:46.993Z,810.71
2018-01-18T05:56:46.997Z,810.87
2018-01-18T05:57:46.999Z,811.07
2018-01-18T05:58:47.031Z,810.93
2018-01-18T05:59:47.001Z,810.94
2018-01-18T06:00:47.002Z,810.87
2018-01-18T06:01:47.006Z,810.90
2018-01-18T06:02:47.006Z,810.88
2018-01-18T06:03:47.008Z,810.79
2018-01-18T06:04:47.009Z,810.84
2018-01-18T06:05:47.011Z,810.82
2018-01-18T06:06:47.015Z,810.80
2018-01-18T06:07:47.017Z,810.81
2018-01-18T06:08:47.017Z,810.65
2018-01-18T06:09:47.020Z,810.69
2018-01-18T06:10:47.023Z,810.73
2018-01-18T06:11:47.026Z,810.70
2018-01-18T06:12:47.026Z,810.75
2018-01-18T06:13:47.027Z,810.79
2018-01-18T06:14:47.030Z,810.79
2018-01-18T06:15:47.034Z,810.73
2018-01-18T06:16:47.034Z,810.76
2018-01-18T06:17:47.037Z,810.76
2018-01-18T06:18:47.042Z,810.79
2018-01-18T06:19:47.041Z,810.85
2018-01-18T06:20:47.046Z,810.88
2018-01-18T06:21:47.044Z,810.79
2018-01-18T06:22:47.051Z,810.67
2018-01-18T06:23:47.047Z,810.65
2018-01-18T06:24:47.050Z,810.66
2018-01-18T06:25:47.054Z,810.65
2018-01-18T06:26:47.056Z,810.79
2018-01-18T06:27:47.058Z,810.82
2018-01-18T06:28:47.061Z,810.80
2018-01-18T06:29:47.062Z,810.76
2018-01-18T06:30:47.065Z,810.80
2018-01-18T06:31:47.069Z,810.83
2018-01-18T06:32:47.068Z,810.80
2018-01-18T06:33:47.070Z,810.73
2018-01-18T06:34:47.074Z,810.73
2018-01-18T06:35:47.078Z,810.53
2018-01-18T06:36:47.079Z,810.63
2018-01-18T06:37:47.080Z,810.73
2018-01-18T06:38:47.083Z,810.70
2018-01-18T06:39:47.086Z,810.63
2018-01-18T06:40:47.087Z,810.77
2018-01-18T06:41:47.089Z,810.80
2018-01-18T06:42:47.092Z,810.78
2018-01-18T06:43:47.095Z,810.81
2018-01-18T06:44:47.097Z,810.82
2018-01-18T06:45:47.102Z,810.88
2018-01-18T06:46:47.103Z,810.87
2018-01-18T06:47:47.105Z,810.83
2018-01-18T06:48:47.106Z,810.75
2018-01-18T06:49:47.110Z,810.81
2018-01-18T06:50:47.111Z,810.80
2018-01-18T06:51:47.114Z,810.82
2018-01-18T06:52:47.117Z,810.79
2018-01-18T06:53:47.120Z,810.73
2018-01-18T06:54:47.119Z,810.72
2018-01-18T06:55:47.124Z,810.69
2018-01-18T06:56:47.126Z,810.57
2018-01-18T06:57:47.129Z,810.65
2018-01-18T06:58:47.133Z,810.65
2018-01-18T06:59:47.134Z,810.59
2018-01-18T07:00:47.136Z,810.57
2018-01-18T07:01:47.142Z,810.53
2018-01-18T07:02:47.144Z,810.62
2018-01-18T07:03:47.147Z,810.68
2018-01-18T07:04:47.148Z,810.86
2018-01-18T07:05:47.151Z,810.98
2018-01-18T07:06:47.153Z,810.77
2018-01-18T07:07:47.159Z,810.70
2018-01-18T07:08:47.159Z,810.75
2018-01-18T07:09:47.164Z,810.78
2018-01-18T07:10:47.165Z,810.83
2018-01-18T07:11:47.170Z,810.78
2018-01-18T07:12:47.170Z,810.72
2018-01-18T07:13:47.172Z,810.72
2018-01-18T07:14:47.176Z,810.69
2018-01-18T07:15:47.178Z,810.72
2018-01-18T07:16:47.183Z,810.70
2018-01-18T07:17:47.184Z,810.73
2018-01-18T07:18:47.205Z,810.76
2018-01-18T07:19:47.192Z,810.77
2018-01-18T07:20:47.193Z,810.78
2018-01-18T07:21:47.197Z,810.76
2018-01-18T07:22:47.199Z,810.75
2018-01-18T07:23:47.202Z,810.68
2018-01-18T07:24:47.211Z,810.71
2018-01-18T07:25:47.208Z,810.77
2018-01-18T07:26:47.211Z,810.68
2018-01-18T07:27:47.217Z,810.71
2018-01-18T07:28:47.217Z,810.74
2018-01-18T07:29:47.221Z,810.76
2018-01-18T07:30:47.223Z,810.75
2018-01-18T07:31:47.229Z,810.76
2018-01-18T07:32:47.230Z,810.78
2018-01-18T07:33:47.234Z,810.74
2018-01-18T07:34:47.236Z,810.74
2018-01-18T07:35:47.238Z,810.79
2018-01-18T07:36:47.243Z,810.79
2018-01-18T07:37:47.246Z,810.69
2018-01-18T07:38:47.250Z,810.66
2018-01-18T07:39:47.252Z,810.79
2018-01-18T07:40:47.255Z,810.75
2018-01-18T07:41:47.258Z,810.73
2018-01-18T07:42:47.263Z,810.74
2018-01-18T07:43:47.265Z,810.71
2018-01-18T07:44:47.266Z,810.68
2018-01-18T07:45:47.270Z,810.61
2018-01-18T07:46:47.277Z,810.62
2018-01-18T07:47:47.276Z,810.72
2018-01-18T07:48:47.280Z,810.71
2018-01-18T07:49:47.284Z,810.65
2018-01-18T07:50:47.287Z,810.66
2018-01-18T07:51:47.289Z,810.65
2018-01-18T07:52:47.294Z,810.64
2018-01-18T07:53:47.295Z,810.68
2018-01-18T07:54:47.298Z,810.68
2018-01-18T07:55:47.302Z,810.64
2018-01-18T07:56:47.304Z,810.60
2018-01-18T07:57:47.309Z,810.70
2018-01-18T07:58:47.312Z,810.73
2018-01-18T07:59:47.314Z,810.72
2018-01-18T08:00:47.318Z,810.70
2018-01-18T08:01:47.319Z,810.73
2018-01-18T08:02:47.323Z,810.81
2018-01-18T08:03:47.325Z,810.80
2018-01-18T08:04:47.330Z,810.87
2018-01-18T08:05:47.332Z,810.87
2018-01-18T08:06:47.367Z,810.91
2018-01-18T08:07:47.340Z,810.91
2018-01-18T08:08:47.342Z,810.91
2018-01-18T08:09:47.346Z,810.85
2018-01-18T08:10:47.348Z,810.86
2018-01-18T08:11:47.352Z,810.85
2018-01-18T08:12:47.355Z,810.91
2018-01-18T08:13:47.363Z,810.96
2018-01-18T08:14:47.366Z,810.84
2018-01-18T08:15:47.367Z,810.89
2018-01-18T08:16:47.369Z,810.91
2018-01-18T08:17:47.370Z,810.92
2018-01-18T08:18:47.374Z,810.96
2018-01-18T08:19:47.378Z,811.00
2018-01-18T08:20:47.380Z,811.01
2018-01-18T08:21:47.384Z,810.97
2018-01-18T08:22:47.387Z,810.97
2018-01-18T08:23:47.390Z,810.90
2018-01-18T08:24:47.394Z,810.87
2018-01-18T08:25:47.399Z,810.89
2018-01-18T08:26:47.400Z,810.85
2018-01-18T08:27:47.403Z,810.78
2018-01-18T08:28:47.407Z,810.90
2018-01-18T08:29:47.412Z,810.96
2018-01-18T08:30:47.414Z,810.97
2018-01-18T08:31:47.418Z,810.86
2018-01-18T08:32:47.419Z,810.82
2018-01-18T08:33:47.425Z,810.84
2018-01-18T08:34:47.426Z,810.97
2018-01-18T08:35:47.429Z,811.03
2018-01-18T08:36:47.433Z,810.94
2018-01-18T08:37:47.439Z,810.92
2018-01-18T08:38:47.441Z,810.83
2018-01-18T08:39:47.446Z,810.78
2018-01-18T08:40:47.446Z,810.81
2018-01-18T08:41:47.450Z,810.80
2018-01-18T08:42:47.454Z,810.91
2018-01-18T08:43:47.457Z,810.94
2018-01-18T08:44:47.459Z,810.93
2018-01-18T08:45:47.463Z,810.97
2018-01-18T08:46:47.506Z,810.79
2018-01-18T08:47:47.473Z,810.54
2018-01-18T08:48:47.473Z,810.57
2018-01-18T08:49:47.476Z,810.64
2018-01-18T08:50:47.480Z,810.67
2018-01-18T08:51:47.488Z,810.78
2018-01-18T08:52:47.486Z,810.80
2018-01-18T08:53:47.491Z,810.70
2018-01-18T08:54:47.493Z,810.77
2018-01-18T08:55:47.499Z,810.78
2018-01-18T08:56:47.499Z,810.87
2018-01-18T08:57:47.504Z,810.86
2018-01-18T08:58:47.506Z,810.81
2018-01-18T08:59:47.512Z,810.71
2018-01-18T09:00:47.512Z,810.73
2018-01-18T09:01:47.524Z,810.81
2018-01-18T09:02:47.520Z,810.87
2018-01-18T09:03:47.524Z,810.87
2018-01-18T09:04:47.526Z,810.83
2018-01-18T09:05:47.538Z,810.75
2018-01-18T09:06:47.533Z,810.64
2018-01-18T09:07:47.538Z,810.61
2018-01-18T09:08:47.541Z,810.58
2018-01-18T09:09:47.543Z,810.62
2018-01-18T09:10:47.548Z,810.59
2018-01-18T09:11:47.553Z,810.57
2018-01-18T09:12:47.557Z,810.58
2018-01-18T09:13:47.563Z,810.58
2018-01-18T09:14:47.564Z,810.68
2018-01-18T09:15:47.566Z,810.63
2018-01-18T09:16:47.570Z,810.57
2018-01-18T09:17:47.575Z,810.54
2018-01-18T09:18:47.578Z,810.54
2018-01-18T09:19:47.580Z,810.65
2018-01-18T09:20:47.584Z,810.71
2018-01-18T09:21:47.589Z,810.84
2018-01-18T09:22:47.597Z,810.82
2018-01-18T09:23:47.596Z,810.82
2018-01-18T09:24:47.600Z,810.81
2018-01-18T09:25:47.604Z,810.81
2018-01-18T09:26:47.608Z,810.75
2018-01-18T09:27:47.613Z,810.82
2018-01-18T09:28:47.617Z,810.86
2018-01-18T09:29:47.616Z,810.82
2018-01-18T09:30:47.623Z,810.85
2018-01-18T09:31:47.628Z,810.95
2018-01-18T09:32:47.630Z,810.92
2018-01-18T09:33:47.636Z,810.92
2018-01-18T09:34:47.638Z,810.91
2018-01-18T09:35:47.641Z,810.95
2018-01-18T09:36:47.644Z,811.00
2018-01-18T09:37:47.647Z,811.04
2018-01-18T09:38:47.652Z,810.97
2018-01-18T09:39:47.656Z,810.95
2018-01-18T09:40:47.660Z,811.00
2018-01-18T09:41:47.665Z,811.09
2018-01-18T09:42:47.672Z,811.00
2018-01-18T09:43:47.672Z,811.06
2018-01-18T09:44:47.674Z,811.04
2018-01-18T09:45:47.678Z,810.95
2018-01-18T09:46:47.683Z,810.98
2018-01-18T09:47:47.685Z,810.96
2018-01-18T09:48:47.690Z,810.89
2018-01-18T09:49:47.693Z,810.82
2018-01-18T09:50:47.696Z,810.82
2018-01-18T09:51:47.700Z,810.85
2018-01-18T09:52:47.706Z,810.79
2018-01-18T09:53:47.708Z,810.76
2018-01-18T09:54:47.710Z,810.81
2018-01-18T09:55:47.715Z,810.83
2018-01-18T09:56:47.719Z,810.88
2018-01-18T09:57:47.722Z,810.94
2018-01-18T09:58:47.725Z,810.86
2018-01-18T09:59:47.727Z,810.88
2018-01-18T10:00:47.731Z,810.79
2018-01-18T10:01:47.740Z,810.84
2018-01-18T10:02:47.740Z,810.86
2018-01-18T10:03:47.744Z,810.88
2018-01-18T10:04:47.746Z,810.89
2018-01-18T10:05:47.756Z,810.92
2018-01-18T10:06:47.754Z,810.85
2018-01-18T10:07:47.756Z,810.89
2018-01-18T10:08:47.760Z,810.87
2018-01-18T10:09:47.765Z,810.90
2018-01-18T10:10:47.769Z,810.83
2018-01-18T10:11:47.771Z,810.87
2018-01-18T10:12:47.776Z,810.88
2018-01-18T10:13:47.779Z,810.86
2018-01-18T10:14:47.792Z,810.77
2018-01-18T10:15:47.787Z,810.81
2018-01-18T10:16:47.792Z,810.85
2018-01-18T10:17:47.795Z,810.86
2018-01-18T10:18:47.799Z,810.87
2018-01-18T10:19:47.801Z,810.75
2018-01-18T10:20:47.819Z,810.73
2018-01-18T10:21:47.809Z,810.72
2018-01-18T10:22:47.819Z,810.76
2018-01-18T10:23:47.817Z,810.81
2018-01-18T10:24:47.846Z,810.72
2018-01-18T10:25:47.830Z,810.72
2018-01-18T10:26:47.831Z,810.81
2018-01-18T10:27:47.851Z,810.81
2018-01-18T10:28:47.839Z,810.74
2018-01-18T10:29:47.842Z,810.80
2018-01-18T10:30:47.847Z,810.84
2018-01-18T10:31:47.853Z,810.82
2018-01-18T10:32:47.854Z,810.85
2018-01-18T10:33:47.860Z,810.82
2018-01-18T10:34:47.864Z,810.87
2018-01-18T10:35:47.867Z,810.81
2018-01-18T10:36:47.870Z,810.82
2018-01-18T10:37:47.877Z,810.83
2018-01-18T10:38:47.882Z,810.84
2018-01-18T10:39:47.884Z,810.85
2018-01-18T10:40:47.889Z,810.86
2018-01-18T10:41:47.892Z,810.84
2018-01-18T10:42:47.896Z,810.90
2018-01-18T10:43:47.940Z,810.89
2018-01-18T10:44:47.908Z,810.94
2018-01-18T10:45:47.911Z,811.00
2018-01-18T10:46:47.964Z,811.05
2018-01-18T10:47:47.923Z,811.00
2018-01-18T10:48:47.923Z,810.95
2018-01-18T10:49:47.926Z,810.95
2018-01-18T10:50:47.933Z,810.91
2018-01-18T10:51:47.940Z,810.98
2018-01-18T10:52:47.941Z,810.94
2018-01-18T10:53:47.946Z,811.05
2018-01-18T10:54:47.953Z,811.12
2018-01-18T10:55:47.956Z,811.15
2018-01-18T10:56:47.961Z,811.21
2018-01-18T10:57:47.965Z,811.05
2018-01-18T10:58:47.970Z,811.03
2018-01-18T10:59:47.974Z,811.06
2018-01-18T11:00:47.979Z,811.04
2018-01-18T11:01:47.983Z,811.13
2018-01-18T11:02:47.989Z,811.03
2018-01-18T11:03:47.993Z,811.00
2018-01-18T11:04:47.998Z,811.01
2018-01-18T11:05:48.004Z,810.94
2018-01-18T11:06:48.009Z,810.91
2018-01-18T11:07:48.011Z,810.97
2018-01-18T11:08:48.017Z,810.95
2018-01-18T11:09:48.023Z,810.97
2018-01-18T11:10:48.029Z,810.91
2018-01-18T11:11:48.035Z,810.90
2018-01-18T11:12:48.036Z,810.93
2018-01-18T11:13:48.041Z,810.92
2018-01-18T11:14:48.045Z,811.02
2018-01-18T11:15:48.048Z,811.05
2018-01-18T11:16:48.056Z,810.97
2018-01-18T11:17:48.061Z,810.78
2018-01-18T11:18:48.064Z,810.82
2018-01-18T11:19:48.067Z,810.88
2018-01-18T11:20:48.072Z,810.95
2018-01-18T11:21:48.077Z,810.88
2018-01-18T11:22:48.083Z,810.91
2018-01-18T11:23:48.089Z,810.89
2018-01-18T11:24:48.094Z,810.87
2018-01-18T11:25:48.096Z,810.77
2018-01-18T11:26:48.103Z,810.71
2018-01-18T11:27:48.162Z,810.63
2018-01-18T11:28:48.112Z,810.76
2018-01-18T11:29:48.116Z,810.81
2018-01-18T11:30:48.121Z,810.81
2018-01-18T11:31:48.128Z,810.80
2018-01-18T11:32:48.131Z,810.86
2018-01-18T11:33:48.136Z,810.86
2018-01-18T11:34:48.142Z,811.02
2018-01-18T11:35:48.147Z,810.71
2018-01-18T11:36:48.152Z,810.59
2018-01-18T11:37:48.163Z,810.76
2018-01-18T11:38:48.164Z,810.84
2018-01-18T11:39:48.166Z,810.94
2018-01-18T11:40:48.171Z,811.06
2018-01-18T11:41:48.176Z,811.02
2018-01-18T11:42:48.183Z,810.75
2018-01-18T11:43:48.192Z,810.73
2018-01-18T11:44:48.190Z,810.88
2018-01-18T11:45:48.195Z,810.92
2018-01-18T11:46:48.200Z,810.93
2018-01-18T11:47:48.206Z,810.83
2018-01-18T11:48:48.209Z,810.86
2018-01-18T11:49:48.214Z,810.85
2018-01-18T11:50:48.221Z,810.87
2018-01-18T11:51:48.283Z,810.80
2018-01-18T11:52:48.229Z,810.77
2018-01-18T11:53:48.235Z,810.77
2018-01-18T11:54:48.238Z,810.74
2018-01-18T11:55:48.244Z,810.80
2018-01-18T11:56:48.249Z,810.78
2018-01-18T11:57:48.253Z,810.81
2018-01-18T11:58:48.259Z,810.75
2018-01-18T11:59:48.263Z,810.75
2018-01-18T12:00:48.267Z,810.80
2018-01-18T12:01:48.275Z,810.78
2018-01-18T12:02:48.278Z,810.76
2018-01-18T12:03:48.283Z,810.77
2018-01-18T12:04:48.300Z,810.79
2018-01-18T12:05:48.291Z,810.79
2018-01-18T12:06:48.296Z,810.73
2018-01-18T12:07:48.300Z,810.70
2018-01-18T12:08:48.315Z,810.73
2018-01-18T12:09:48.311Z,810.72
2018-01-18T12:10:48.316Z,810.75
2018-01-18T12:11:48.320Z,810.75
2018-01-18T12:12:48.329Z,810.69
2018-01-18T12:13:48.330Z,810.65
2018-01-18T12:14:48.336Z,810.66
2018-01-18T12:15:48.341Z,810.70
2018-01-18T12:16:48.346Z,810.74
2018-01-18T12:17:48.350Z,810.71
2018-01-18T12:18:48.415Z,810.76
2018-01-18T12:19:48.360Z,810.80
2018-01-18T12:20:48.365Z,810.83
2018-01-18T12:21:48.369Z,810.82
2018-01-18T12:22:48.373Z,810.84
2018-01-18T12:23:48.379Z,810.83
2018-01-18T12:24:48.385Z,810.82
2018-01-18T12:25:48.397Z,810.82
2018-01-18T12:26:48.395Z,810.79
2018-01-18T12:27:48.404Z,810.80
2018-01-18T12:28:48.406Z,810.75